createdAt,value
2019-06-10T00:00:51.844Z,26.90
2019-06-10T00:03:27.709Z,27.00
2019-06-10T00:06:04.111Z,27.00
2019-06-10T00:08:41.456Z,26.90
2019-06-10T00:11:17.118Z,26.80
2019-06-10T00:13:54.698Z,26.80
2019-06-10T00:16:31.759Z,26.70
2019-06-10T00:19:12.711Z,26.80
2019-06-10T00:21:50.965Z,26.90
2019-06-10T00:24:31.451Z,26.90
2019-06-10T00:27:09.349Z,26.90
2019-06-10T00:29:48.157Z,26.90
2019-06-10T00:32:27.139Z,27.00
2019-06-10T00:35:04.617Z,27.20
2019-06-10T00:37:43.635Z,27.40
2019-06-10T00:40:21.505Z,27.50
2019-06-10T00:42:56.248Z,27.70
2019-06-10T00:45:36.644Z,27.80
2019-06-10T00:48:25.301Z,28.10
2019-06-10T00:50:54.851Z,28.20
2019-06-10T00:53:32.804Z,28.40
2019-06-10T00:56:13.826Z,28.40
2019-06-10T00:58:47.951Z,28.40
2019-06-10T01:01:25.662Z,28.40
2019-06-10T01:04:07.364Z,28.60
2019-06-10T01:06:48.226Z,28.70
2019-06-10T01:09:23.840Z,28.60
2019-06-10T01:12:01.176Z,28.80
2019-06-10T01:14:41.023Z,28.90
2019-06-10T01:17:25.806Z,28.90
2019-06-10T01:20:01.808Z,28.90
2019-06-10T01:22:37.951Z,28.80
2019-06-10T01:25:17.748Z,28.90
2019-06-10T01:27:53.382Z,28.90
2019-06-10T01:30:31.329Z,29.00
2019-06-10T01:33:10.594Z,29.00
2019-06-10T01:35:46.608Z,29.10
2019-06-10T01:38:22.247Z,29.20
2019-06-10T01:41:01.891Z,29.10
2019-06-10T01:43:40.795Z,29.10
2019-06-10T01:46:22.595Z,29.20
2019-06-10T01:49:02.651Z,29.30
2019-06-10T01:51:43.563Z,29.40
2019-06-10T01:54:21.620Z,29.40
2019-06-10T01:56:58.141Z,29.50
2019-06-10T01:59:37.183Z,29.60
2019-06-10T02:02:17.323Z,29.70
2019-06-10T02:04:53.879Z,29.80
2019-06-10T02:07:31.794Z,30.00
2019-06-10T02:10:26.826Z,30.00
2019-06-10T02:13:01.958Z,30.10
2019-06-10T02:15:37.991Z,30.20
2019-06-10T02:18:18.207Z,30.40
2019-06-10T02:20:56.034Z,30.50
2019-06-10T02:23:32.748Z,30.50
2019-06-10T02:26:08.094Z,30.70
2019-06-10T02:28:44.908Z,30.80
2019-06-10T02:31:30.192Z,31.10
2019-06-10T02:34:13.211Z,31.10
2019-06-10T02:36:48.879Z,31.10
2019-06-10T02:39:32.275Z,31.10
2019-06-10T02:42:08.339Z,31.00
2019-06-10T02:44:54.125Z,31.10
2019-06-10T02:47:38.466Z,31.20
2019-06-10T02:50:20.976Z,31.30
2019-06-10T02:52:54.121Z,31.50
2019-06-10T02:55:34.223Z,31.60
2019-06-10T02:58:15.209Z,31.50
2019-06-10T03:00:49.427Z,31.60
2019-06-10T03:03:39.426Z,31.80
2019-06-10T03:06:08.991Z,31.70
2019-06-10T03:08:45.663Z,31.70
2019-06-10T03:11:27.928Z,31.70
2019-06-10T03:14:07.795Z,31.60
2019-06-10T03:16:45.453Z,31.80
2019-06-10T03:19:41.837Z,32.00
2019-06-10T03:22:13.084Z,31.80
2019-06-10T03:24:53.628Z,31.80
2019-06-10T03:27:32.712Z,31.70
2019-06-10T03:30:20.526Z,31.60
2019-06-10T03:35:52.300Z,31.60
2019-06-10T03:38:38.658Z,31.50
2019-06-10T03:41:16.523Z,31.70
2019-06-10T03:43:56.832Z,31.80
2019-06-10T03:46:43.209Z,32.00
2019-06-10T03:49:21.874Z,32.20
2019-06-10T03:52:04.227Z,32.30
2019-06-10T03:54:43.463Z,32.40
2019-06-10T03:57:26.829Z,32.50
2019-06-10T04:00:03.483Z,32.60
2019-06-10T04:02:43.245Z,32.50
2019-06-10T04:05:23.856Z,32.50
2019-06-10T04:08:19.392Z,32.50
2019-06-10T04:11:06.515Z,32.50
2019-06-10T04:13:40.216Z,32.50
2019-06-10T04:16:26.682Z,32.80
2019-06-10T04:19:03.114Z,33.00
2019-06-10T04:21:43.457Z,33.20
2019-06-10T04:24:25.135Z,33.20
2019-06-10T04:27:05.385Z,33.30
2019-06-10T04:29:45.804Z,33.10
2019-06-10T04:32:25.798Z,33.50
2019-06-10T04:35:04.563Z,33.50
2019-06-10T04:37:51.914Z,33.60
2019-06-10T04:40:29.355Z,33.50
2019-06-10T04:43:05.849Z,33.50
2019-06-10T04:45:55.150Z,33.60
2019-06-10T04:48:36.128Z,33.60
2019-06-10T04:51:13.780Z,33.70
2019-06-10T04:53:52.698Z,34.00
2019-06-10T04:59:27.304Z,34.20
2019-06-10T05:02:12.824Z,34.20
2019-06-10T05:04:54.436Z,34.00
2019-06-10T05:07:37.059Z,34.10
2019-06-10T05:10:14.112Z,34.00
2019-06-10T05:12:52.556Z,34.00
2019-06-10T05:21:24.562Z,33.90
2019-06-10T05:24:02.916Z,33.80
2019-06-10T05:26:42.452Z,34.00
2019-06-10T05:29:16.607Z,34.20
2019-06-10T05:31:56.634Z,34.10
2019-06-10T05:34:34.645Z,34.40
2019-06-10T05:37:14.183Z,34.60
2019-06-10T05:42:43.503Z,34.60
2019-06-10T05:45:25.600Z,34.60
2019-06-10T05:48:02.836Z,34.90
2019-06-10T05:50:39.754Z,34.70
2019-06-10T05:53:15.564Z,34.60
2019-06-10T05:55:52.948Z,34.40
2019-06-10T05:58:35.976Z,34.20
2019-06-10T06:01:13.238Z,34.20
2019-06-10T06:03:52.656Z,34.20
2019-06-10T06:06:33.444Z,34.20
2019-06-10T06:09:14.863Z,34.10
2019-06-10T06:14:45.914Z,33.60
2019-06-10T06:17:23.460Z,33.20
2019-06-10T06:20:13.113Z,33.10
2019-06-10T06:22:52.119Z,32.70
2019-06-10T06:25:29.871Z,32.50
2019-06-10T06:28:22.946Z,32.40
2019-06-10T06:30:59.657Z,32.30
2019-06-10T06:33:37.740Z,32.10
2019-06-10T06:36:22.681Z,31.90
2019-06-10T06:39:02.300Z,31.90
2019-06-10T06:41:39.141Z,31.90
2019-06-10T06:44:19.488Z,32.20
2019-06-10T06:47:13.193Z,32.10
2019-06-10T06:49:55.525Z,32.30
2019-06-10T06:53:00.937Z,32.40
2019-06-10T06:55:13.120Z,32.70
2019-06-10T06:57:52.910Z,32.90
2019-06-10T07:00:52.753Z,32.80
2019-06-10T07:03:22.866Z,32.60
2019-06-10T07:06:09.814Z,32.10
2019-06-10T07:09:01.504Z,31.50
2019-06-10T07:11:37.060Z,31.40
2019-06-10T07:14:12.938Z,31.30
2019-06-10T07:16:58.724Z,31.10
2019-06-10T07:19:45.754Z,31.00
2019-06-10T07:25:14.271Z,31.20
2019-06-10T07:27:56.423Z,31.10
2019-06-10T07:30:39.454Z,31.20
2019-06-10T07:33:18.147Z,31.10
2019-06-10T07:36:03.867Z,31.10
2019-06-10T07:38:49.258Z,31.10
2019-06-10T07:41:34.387Z,31.20
2019-06-10T07:44:12.477Z,31.40
2019-06-10T07:47:05.206Z,31.40
2019-06-10T07:49:45.659Z,31.40
2019-06-10T07:52:23.495Z,31.30
2019-06-10T07:55:02.363Z,31.00
2019-06-10T07:57:43.898Z,31.00
2019-06-10T08:00:22.865Z,31.20
2019-06-10T08:03:02.274Z,30.80
2019-06-10T08:05:46.680Z,30.80
2019-06-10T08:08:26.608Z,30.60
2019-06-10T08:11:06.657Z,30.60
2019-06-10T08:13:46.168Z,30.70
2019-06-10T08:16:23.364Z,30.60
2019-06-10T08:19:22.021Z,30.70
2019-06-10T08:21:37.663Z,30.70
2019-06-10T08:24:13.823Z,30.70
2019-06-10T08:26:49.835Z,30.70
2019-06-10T08:29:28.823Z,30.50
2019-06-10T08:32:06.605Z,30.30
2019-06-10T08:34:56.801Z,30.10
2019-06-10T08:37:33.214Z,29.90
2019-06-10T08:40:15.348Z,30.20
2019-06-10T08:42:53.748Z,30.10
2019-06-10T08:45:38.906Z,29.80
2019-06-10T08:48:18.382Z,29.70
2019-06-10T08:50:55.193Z,29.90
2019-06-10T08:53:32.999Z,29.90
2019-06-10T08:56:32.690Z,29.80
2019-06-10T08:58:59.957Z,29.80
2019-06-10T09:01:30.373Z,29.90
2019-06-10T09:04:19.575Z,29.80
2019-06-10T09:07:23.222Z,29.80
2019-06-10T09:10:02.896Z,29.80
2019-06-10T09:12:45.584Z,29.70
2019-06-10T09:15:24.629Z,29.80
2019-06-10T09:18:04.717Z,29.50
2019-06-10T09:20:48.780Z,29.50
2019-06-10T09:23:23.170Z,29.70
2019-06-10T09:26:03.650Z,29.60
2019-06-10T09:28:41.502Z,29.40
2019-06-10T09:31:19.396Z,29.30
2019-06-10T09:33:57.007Z,29.40
2019-06-10T09:36:33.546Z,29.50
2019-06-10T09:39:19.135Z,29.30
2019-06-10T09:42:06.139Z,29.40
2019-06-10T09:44:45.885Z,29.30
2019-06-10T09:47:22.523Z,29.20
2019-06-10T09:49:59.598Z,29.30
2019-06-10T09:52:36.112Z,29.30
2019-06-10T09:55:23.265Z,29.20
2019-06-10T09:58:09.046Z,29.20
2019-06-10T10:00:57.241Z,29.30
2019-06-10T10:03:32.732Z,29.30
2019-06-10T10:06:14.965Z,29.20
2019-06-10T10:08:52.661Z,29.30
2019-06-10T10:11:28.460Z,29.40
2019-06-10T10:14:09.609Z,29.40
2019-06-10T10:16:52.150Z,29.40
2019-06-10T10:19:24.271Z,29.10
2019-06-10T10:22:03.265Z,29.10
2019-06-10T10:24:39.455Z,29.30
2019-06-10T10:27:17.279Z,29.20
2019-06-10T10:29:56.970Z,29.30
2019-06-10T10:32:33.428Z,29.20
2019-06-10T10:35:09.675Z,29.20
2019-06-10T10:37:46.392Z,29.10
2019-06-10T10:40:26.970Z,29.10
2019-06-10T10:43:22.561Z,29.10
2019-06-10T10:45:43.442Z,29.10
2019-06-10T10:48:17.831Z,29.00
2019-06-10T10:50:56.027Z,29.10
2019-06-10T10:53:32.818Z,29.00
2019-06-10T10:56:12.586Z,29.00
2019-06-10T10:58:55.528Z,28.80
2019-06-10T11:01:28.222Z,28.80
2019-06-10T11:04:08.286Z,28.80
2019-06-10T11:06:44.457Z,28.70
2019-06-10T11:09:22.361Z,28.80
2019-06-10T11:11:59.790Z,28.70
2019-06-10T11:14:39.517Z,28.70
2019-06-10T11:17:19.871Z,28.70
2019-06-10T11:19:57.783Z,28.60
2019-06-10T11:22:33.789Z,28.60
2019-06-10T11:25:09.750Z,28.60
2019-06-10T11:27:50.125Z,28.40
2019-06-10T11:30:25.896Z,28.50
2019-06-10T11:33:10.742Z,28.50
2019-06-10T11:35:48.951Z,28.40
2019-06-10T11:38:26.316Z,28.40
2019-06-10T11:41:04.925Z,28.50
2019-06-10T11:43:57.749Z,28.50
2019-06-10T11:46:33.204Z,28.60
2019-06-10T11:49:09.598Z,28.60
2019-06-10T11:51:52.631Z,28.40
2019-06-10T11:54:29.613Z,28.40
2019-06-10T11:57:06.780Z,28.40
2019-06-10T11:59:48.000Z,28.50
2019-06-10T12:02:27.349Z,28.50
2019-06-10T12:05:13.236Z,28.50
2019-06-10T12:07:56.372Z,28.40
2019-06-10T12:10:33.084Z,28.20
2019-06-10T12:13:13.396Z,28.00
2019-06-10T12:16:48.851Z,28.10
2019-06-10T12:18:35.150Z,28.10
2019-06-10T12:21:14.860Z,28.10
2019-06-10T12:23:56.982Z,28.10
2019-06-10T12:26:35.739Z,28.00
2019-06-10T12:29:22.547Z,28.00
2019-06-10T12:32:02.827Z,28.20
2019-06-10T12:34:51.279Z,28.10
2019-06-10T12:37:36.867Z,28.10
2019-06-10T12:40:17.884Z,28.10
2019-06-10T12:45:53.966Z,28.00
2019-06-10T12:48:33.192Z,27.80
2019-06-10T12:51:09.529Z,27.80
2019-06-10T12:53:48.211Z,27.70
2019-06-10T12:56:23.861Z,27.80
2019-06-10T12:59:07.675Z,27.80
2019-06-10T13:01:40.495Z,27.80
2019-06-10T13:04:18.497Z,27.80
2019-06-10T13:07:00.150Z,27.70
2019-06-10T13:09:44.872Z,27.60
2019-06-10T13:12:22.949Z,27.50
2019-06-10T13:14:59.977Z,27.50
2019-06-10T13:17:37.772Z,27.40
2019-06-10T13:20:32.850Z,27.40
2019-06-10T13:23:20.241Z,27.30
2019-06-10T13:25:57.934Z,27.30
2019-06-10T13:28:35.832Z,27.20
2019-06-10T13:31:15.359Z,27.20
2019-06-10T13:33:52.914Z,27.30
2019-06-10T13:36:37.463Z,27.30
2019-06-10T13:39:22.136Z,27.30
2019-06-10T13:42:06.857Z,27.30
2019-06-10T13:47:37.363Z,27.30
2019-06-10T13:50:14.768Z,27.30
2019-06-10T13:55:47.155Z,27.20
2019-06-10T13:58:25.060Z,27.00
2019-06-10T14:04:02.898Z,26.80
2019-06-10T14:06:47.027Z,26.90
2019-06-10T14:12:18.826Z,27.00
2019-06-10T14:15:04.126Z,27.10
2019-06-10T14:17:52.751Z,27.10
2019-06-10T14:20:29.583Z,27.00
2019-06-10T14:23:13.604Z,26.90
2019-06-10T14:28:44.275Z,26.90
2019-06-10T14:31:38.583Z,27.00
2019-06-10T14:34:10.623Z,27.00
2019-06-10T14:36:46.874Z,26.90
2019-06-10T14:39:32.914Z,26.90
2019-06-10T14:42:27.419Z,26.80
2019-06-10T14:45:07.201Z,26.80
2019-06-10T14:47:47.886Z,26.80
2019-06-10T14:50:32.485Z,26.70
2019-06-10T14:53:11.772Z,26.60
2019-06-10T14:55:56.647Z,26.60
2019-06-10T14:58:42.464Z,26.60
2019-06-10T15:07:42.174Z,26.50
2019-06-10T15:10:25.914Z,26.40
2019-06-10T15:13:09.670Z,26.40
2019-06-10T15:15:52.954Z,26.40
2019-06-10T15:18:29.822Z,26.40
2019-06-10T15:21:08.999Z,26.30
2019-06-10T15:24:05.079Z,26.40
2019-06-10T15:29:37.765Z,26.00
2019-06-10T15:32:32.886Z,25.90
2019-06-10T15:38:04.104Z,25.90
2019-06-10T15:40:43.907Z,25.90
2019-06-10T15:43:25.050Z,25.70
2019-06-10T15:49:02.412Z,25.70
2019-06-10T15:51:39.881Z,25.60
2019-06-10T15:54:25.849Z,25.60
2019-06-10T16:00:11.312Z,25.40
2019-06-10T16:02:52.535Z,25.40
2019-06-10T16:05:46.711Z,25.30
2019-06-10T16:08:27.067Z,25.20
2019-06-10T16:11:04.422Z,25.30
2019-06-10T16:13:47.673Z,25.10
2019-06-10T16:16:32.504Z,25.10
2019-06-10T16:19:28.358Z,25.10
2019-06-10T16:22:12.792Z,25.10
2019-06-10T16:24:58.539Z,25.00
2019-06-10T16:27:48.587Z,24.90
2019-06-10T16:36:14.858Z,25.00
2019-06-10T16:38:54.148Z,24.80
2019-06-10T16:41:33.272Z,24.60
2019-06-10T16:47:25.045Z,24.70
2019-06-10T16:49:56.434Z,24.40
2019-06-10T16:52:34.272Z,24.40
2019-06-10T16:55:12.751Z,24.50
2019-06-10T16:57:59.286Z,24.60
2019-06-10T17:00:34.745Z,24.60
2019-06-10T17:03:12.770Z,24.40
2019-06-10T17:05:53.101Z,24.30
2019-06-10T17:11:38.264Z,24.10
2019-06-10T17:14:16.226Z,24.20
2019-06-10T17:16:56.428Z,24.20
2019-06-10T17:19:33.401Z,24.20
2019-06-10T17:22:12.627Z,24.20
2019-06-10T17:24:57.084Z,23.90
2019-06-10T17:27:33.034Z,24.00
2019-06-10T17:30:19.492Z,24.00
2019-06-10T17:33:05.439Z,24.10
2019-06-10T17:35:46.297Z,23.70
2019-06-10T17:38:28.880Z,23.60
2019-06-10T17:44:09.595Z,23.80
2019-06-10T17:46:49.116Z,23.70
2019-06-10T17:49:35.040Z,23.70
2019-06-10T17:55:03.923Z,23.50
2019-06-10T17:57:43.088Z,23.60
2019-06-10T18:00:20.207Z,23.50
2019-06-10T18:02:57.013Z,23.40
2019-06-10T18:05:37.171Z,23.50
2019-06-10T18:08:16.592Z,23.30
2019-06-10T18:10:57.812Z,23.30
2019-06-10T18:13:35.876Z,23.30
2019-06-10T18:16:13.079Z,23.20
2019-06-10T18:18:49.009Z,22.90
2019-06-10T18:21:24.545Z,23.00
2019-06-10T18:24:07.238Z,23.10
2019-06-10T18:26:42.394Z,23.10
2019-06-10T18:29:17.728Z,22.80
2019-06-10T18:31:53.719Z,22.90
2019-06-10T18:34:29.828Z,22.80
2019-06-10T18:37:06.185Z,22.80
2019-06-10T18:39:43.050Z,22.70
2019-06-10T18:42:18.422Z,22.80
2019-06-10T18:44:58.706Z,22.70
2019-06-10T18:47:37.242Z,22.40
2019-06-10T18:50:13.661Z,22.60
2019-06-10T18:52:53.352Z,22.50
2019-06-10T18:55:37.197Z,22.50
2019-06-10T18:58:11.073Z,22.40
2019-06-10T19:00:59.823Z,22.30
2019-06-10T19:03:28.407Z,22.30
2019-06-10T19:06:08.260Z,22.40
2019-06-10T19:08:45.903Z,22.30
2019-06-10T19:11:21.608Z,22.30
2019-06-10T19:13:59.833Z,22.10
2019-06-10T19:16:33.728Z,22.20
2019-06-10T19:19:12.510Z,22.20
2019-06-10T19:22:01.796Z,22.30
2019-06-10T19:24:24.928Z,22.30
2019-06-10T19:27:05.159Z,22.30
2019-06-10T19:29:45.488Z,22.30
2019-06-10T19:32:15.318Z,22.20
2019-06-10T19:34:52.465Z,22.10
2019-06-10T19:37:28.100Z,22.10
2019-06-10T19:40:05.731Z,21.90
2019-06-10T19:42:44.437Z,22.10
2019-06-10T19:45:18.583Z,22.10
2019-06-10T19:47:56.614Z,22.10
2019-06-10T19:50:34.024Z,22.00
2019-06-10T19:53:07.996Z,21.90
2019-06-10T19:55:48.109Z,21.90
2019-06-10T19:58:23.960Z,21.90
2019-06-10T20:00:59.732Z,21.80
2019-06-10T20:03:37.689Z,21.60
2019-06-10T20:06:13.853Z,21.80
2019-06-10T20:08:52.282Z,21.80
2019-06-10T20:11:27.931Z,21.70
2019-06-10T20:14:03.470Z,21.70
2019-06-10T20:16:39.816Z,21.80
2019-06-10T20:19:16.598Z,21.80
2019-06-10T20:21:54.165Z,21.80
2019-06-10T20:24:29.900Z,21.80
2019-06-10T20:27:25.949Z,21.70
2019-06-10T20:30:10.045Z,21.70
2019-06-10T20:32:37.163Z,21.50
2019-06-10T20:35:15.397Z,21.50
2019-06-10T20:37:53.555Z,21.60
2019-06-10T20:40:27.671Z,21.80
2019-06-10T20:43:03.449Z,21.60
2019-06-10T20:45:39.539Z,21.60
2019-06-10T20:48:17.057Z,21.50
2019-06-10T20:50:53.350Z,21.70
2019-06-10T20:53:27.849Z,21.70
2019-06-10T20:56:04.378Z,21.50
2019-06-10T20:58:46.439Z,21.60
2019-06-10T21:01:24.748Z,21.50
2019-06-10T21:04:03.332Z,21.60
2019-06-10T21:06:41.275Z,21.70
2019-06-10T21:09:18.258Z,21.80
2019-06-10T21:11:54.380Z,21.50
2019-06-10T21:14:34.651Z,21.30
2019-06-10T21:17:12.199Z,21.30
2019-06-10T21:19:47.900Z,21.30
2019-06-10T21:22:22.529Z,21.50
2019-06-10T21:24:57.868Z,21.50
2019-06-10T21:27:35.360Z,21.50
2019-06-10T21:30:11.637Z,21.50
2019-06-10T21:32:49.928Z,21.30
2019-06-10T21:35:25.351Z,21.40
2019-06-10T21:38:01.219Z,21.40
2019-06-10T21:40:38.509Z,21.30
2019-06-10T21:43:14.248Z,21.30
2019-06-10T21:45:57.430Z,21.20
2019-06-10T21:48:32.360Z,21.40
2019-06-10T21:51:07.062Z,21.40
2019-06-10T21:53:42.856Z,21.40
2019-06-10T21:56:21.865Z,21.50
2019-06-10T21:58:56.962Z,21.50
2019-06-10T22:01:34.106Z,21.50
2019-06-10T22:04:13.337Z,21.50
2019-06-10T22:06:49.611Z,21.60
2019-06-10T22:09:24.706Z,21.70
2019-06-10T22:12:02.694Z,21.60
2019-06-10T22:14:38.149Z,21.70
2019-06-10T22:17:13.955Z,21.60
2019-06-10T22:19:50.577Z,21.60
2019-06-10T22:22:26.953Z,21.70
2019-06-10T22:25:03.068Z,21.80
2019-06-10T22:27:38.870Z,21.80
2019-06-10T22:30:15.481Z,21.80
2019-06-10T22:32:54.932Z,21.90
2019-06-10T22:35:35.118Z,21.90
2019-06-10T22:38:13.070Z,21.90
2019-06-10T22:40:53.333Z,21.80
2019-06-10T22:43:28.930Z,21.90
2019-06-10T22:46:04.926Z,22.10
2019-06-10T22:48:42.350Z,22.20
2019-06-10T22:51:22.657Z,22.30
2019-06-10T22:53:59.917Z,22.40
2019-06-10T22:56:34.451Z,22.50
2019-06-10T22:59:10.042Z,22.50
2019-06-10T23:01:47.266Z,22.50
2019-06-10T23:04:22.839Z,22.60
2019-06-10T23:07:03.116Z,22.80
2019-06-10T23:09:38.897Z,22.80
2019-06-10T23:12:16.142Z,22.90
2019-06-10T23:14:54.563Z,23.00
2019-06-10T23:17:31.970Z,23.20
2019-06-10T23:20:06.602Z,23.20
2019-06-10T23:22:44.324Z,23.20
2019-06-10T23:25:21.924Z,23.30
2019-06-10T23:28:00.972Z,23.40
2019-06-10T23:30:45.152Z,23.50
2019-06-10T23:33:22.921Z,23.40
2019-06-10T23:35:58.702Z,23.40
2019-06-10T23:38:33.497Z,23.60
2019-06-10T23:41:08.941Z,23.70
2019-06-10T23:43:46.186Z,23.90
2019-06-10T23:46:22.904Z,24.00
2019-06-10T23:48:59.513Z,23.90
2019-06-10T23:51:33.503Z,23.90
2019-06-10T23:54:12.496Z,24.10
2019-06-10T23:56:52.773Z,24.10
2019-06-10T23:59:33.275Z,24.20
